createdAt,value
2022-10-30T00:00:24.831Z,16.08
2022-10-30T00:03:27.906Z,16.65
2022-10-30T00:06:31.543Z,18.45
2022-10-30T00:09:35.309Z,17.25
2022-10-30T00:12:38.552Z,18.10
2022-10-30T00:15:54.605Z,20.05
2022-10-30T00:18:57.935Z,18.27
2022-10-30T00:25:08.960Z,19.77
2022-10-30T00:28:12.302Z,20.90
2022-10-30T00:31:16.247Z,22.98
2022-10-30T00:34:20.180Z,19.13
2022-10-30T00:37:23.562Z,23.10
2022-10-30T00:40:26.551Z,20.65
2022-10-30T00:43:31.142Z,20.65
2022-10-30T00:46:39.396Z,23.10
2022-10-30T00:49:55.324Z,21.73
2022-10-30T00:53:07.752Z,20.65
2022-10-30T00:56:13.538Z,18.55
2022-10-30T00:59:28.051Z,17.73
2022-10-30T01:02:32.441Z,15.35
2022-10-30T01:05:36.960Z,13.50
2022-10-30T01:08:41.164Z,15.43
2022-10-30T01:11:44.871Z,13.05
2022-10-30T01:14:54.325Z,15.23
2022-10-30T01:18:39.888Z,14.07
2022-10-30T01:22:08.604Z,16.55
2022-10-30T01:25:26.262Z,13.93
2022-10-30T01:32:28.746Z,13.10
2022-10-30T01:35:49.026Z,11.38
2022-10-30T01:38:57.452Z,12.00
2022-10-30T01:42:41.906Z,11.85
2022-10-30T01:45:51.277Z,13.15
2022-10-30T01:49:29.739Z,14.80
2022-10-30T01:52:38.471Z,13.93
2022-10-30T01:55:48.941Z,13.15
2022-10-30T01:59:20.314Z,12.50
2022-10-30T02:02:24.539Z,12.65
2022-10-30T02:05:44.702Z,13.95
2022-10-30T02:08:48.367Z,16.17
2022-10-30T02:11:56.070Z,18.70
2022-10-30T02:15:01.580Z,23.25
2022-10-30T02:18:05.766Z,22.00
2022-10-30T02:21:09.558Z,25.20
2022-10-30T02:24:14.410Z,28.95
2022-10-30T02:27:17.706Z,28.92
2022-10-30T02:30:20.586Z,30.02
2022-10-30T02:33:25.075Z,28.00
2022-10-30T02:36:28.490Z,23.45
2022-10-30T02:39:32.104Z,24.27
2022-10-30T02:42:36.263Z,25.65
2022-10-30T02:45:39.989Z,24.02
2022-10-30T02:48:43.150Z,20.75
2022-10-30T02:51:46.076Z,21.02
2022-10-30T02:54:50.206Z,16.88
2022-10-30T02:57:53.151Z,15.30
2022-10-30T03:00:56.869Z,16.15
2022-10-30T03:03:59.750Z,15.35
2022-10-30T03:07:03.712Z,14.88
2022-10-30T03:10:07.041Z,14.38
2022-10-30T03:13:11.997Z,14.45
2022-10-30T03:16:21.502Z,12.32
2022-10-30T03:19:25.608Z,12.25
2022-10-30T03:22:28.587Z,13.07
2022-10-30T03:25:32.263Z,12.00
2022-10-30T03:28:37.321Z,11.00
2022-10-30T03:31:41.068Z,11.15
2022-10-30T03:34:51.420Z,11.23
2022-10-30T03:37:55.502Z,9.80
2022-10-30T03:40:59.415Z,10.02
2022-10-30T03:44:03.220Z,10.68
2022-10-30T03:47:06.836Z,10.38
2022-10-30T03:50:16.648Z,10.05
2022-10-30T03:53:19.941Z,9.63
2022-10-30T03:56:23.936Z,9.98
2022-10-30T03:59:30.912Z,11.98
2022-10-30T04:02:58.760Z,15.60
2022-10-30T04:06:04.441Z,21.67
2022-10-30T04:09:08.718Z,20.15
2022-10-30T04:12:16.888Z,19.70
2022-10-30T04:15:22.429Z,18.95
2022-10-30T04:18:27.307Z,22.60
2022-10-30T04:21:31.443Z,22.88
2022-10-30T04:24:35.169Z,16.23
2022-10-30T04:27:45.714Z,17.63
2022-10-30T04:30:50.283Z,19.42
2022-10-30T04:33:54.260Z,21.15
2022-10-30T04:36:57.298Z,20.27
2022-10-30T04:40:01.393Z,12.10
2022-10-30T04:43:12.071Z,13.95
2022-10-30T04:46:18.064Z,12.88
2022-10-30T04:49:21.073Z,10.65
2022-10-30T04:52:25.870Z,13.05
2022-10-30T04:55:30.753Z,12.15
2022-10-30T04:58:34.365Z,8.18
2022-10-30T05:01:40.828Z,9.77
2022-10-30T05:04:45.089Z,10.10
2022-10-30T05:07:48.913Z,8.35
2022-10-30T05:10:54.781Z,7.28
2022-10-30T05:13:58.801Z,7.00
2022-10-30T05:17:02.574Z,9.35
2022-10-30T05:20:07.168Z,8.27
2022-10-30T05:23:10.986Z,7.78
2022-10-30T05:26:14.568Z,9.32
2022-10-30T05:29:18.165Z,8.55
2022-10-30T05:32:21.957Z,9.40
2022-10-30T05:35:26.900Z,17.02
2022-10-30T05:38:30.689Z,13.63
2022-10-30T05:41:36.354Z,10.98
2022-10-30T05:44:59.795Z,11.18
2022-10-30T05:48:07.233Z,11.15
2022-10-30T05:51:18.115Z,10.00
2022-10-30T05:54:28.163Z,9.25
2022-10-30T05:57:48.935Z,9.30
2022-10-30T06:00:53.556Z,12.93
2022-10-30T06:07:13.918Z,8.23
2022-10-30T06:10:18.253Z,10.48
2022-10-30T06:13:41.022Z,11.10
2022-10-30T06:20:28.289Z,11.43
2022-10-30T06:23:31.243Z,10.48
2022-10-30T06:26:43.747Z,10.20
2022-10-30T06:29:49.871Z,10.75
2022-10-30T06:33:02.030Z,10.45
2022-10-30T06:36:06.444Z,10.38
2022-10-30T06:39:10.460Z,13.07
2022-10-30T06:42:21.001Z,13.65
2022-10-30T06:45:59.052Z,14.18
2022-10-30T06:49:03.359Z,16.58
2022-10-30T06:52:08.134Z,13.77
2022-10-30T06:55:12.437Z,14.55
2022-10-30T06:58:39.919Z,14.55
2022-10-30T07:01:46.537Z,14.45
2022-10-30T07:05:00.584Z,16.98
2022-10-30T07:08:05.299Z,12.65
2022-10-30T07:11:08.869Z,7.28
2022-10-30T07:14:18.072Z,10.00
2022-10-30T07:17:30.728Z,8.93
2022-10-30T07:20:39.140Z,10.68
2022-10-30T07:23:42.850Z,10.73
2022-10-30T07:26:59.154Z,12.77
2022-10-30T07:30:14.681Z,12.77
2022-10-30T07:33:42.621Z,14.77
2022-10-30T07:37:02.295Z,13.13
2022-10-30T07:40:24.454Z,7.22
2022-10-30T07:43:55.430Z,8.93
2022-10-30T07:47:17.402Z,6.03
2022-10-30T07:50:27.206Z,3.92
2022-10-30T07:53:38.296Z,3.65
2022-10-30T07:56:45.624Z,3.63
2022-10-30T08:00:13.972Z,4.68
2022-10-30T08:03:17.805Z,4.43
2022-10-30T08:06:33.262Z,4.53
2022-10-30T08:09:37.300Z,4.57
2022-10-30T08:12:45.362Z,6.40
2022-10-30T08:15:50.246Z,5.65
2022-10-30T08:18:53.613Z,6.70
2022-10-30T08:22:00.427Z,7.27
2022-10-30T08:25:04.357Z,7.57
2022-10-30T08:28:08.755Z,5.60
2022-10-30T08:31:13.338Z,6.50
2022-10-30T08:34:56.416Z,8.55
2022-10-30T08:38:03.554Z,11.48
2022-10-30T08:41:08.916Z,12.65
2022-10-30T08:44:18.031Z,10.48
2022-10-30T08:47:41.586Z,10.32
2022-10-30T08:50:45.490Z,4.57
2022-10-30T08:53:54.674Z,3.25
2022-10-30T08:56:58.347Z,5.80
2022-10-30T09:00:02.300Z,5.32
2022-10-30T09:03:44.941Z,6.47
2022-10-30T09:07:10.389Z,7.20
2022-10-30T09:10:16.502Z,8.57
2022-10-30T09:13:19.757Z,6.55
2022-10-30T09:16:24.317Z,9.30
2022-10-30T09:19:29.436Z,10.68
2022-10-30T09:22:34.428Z,9.15
2022-10-30T09:25:42.746Z,8.45
2022-10-30T09:29:13.395Z,7.78
2022-10-30T09:32:34.664Z,6.40
2022-10-30T09:35:44.931Z,4.40
2022-10-30T09:38:48.626Z,5.43
2022-10-30T09:42:19.812Z,5.82
2022-10-30T09:45:44.267Z,5.22
2022-10-30T09:49:19.071Z,5.53
2022-10-30T09:52:47.802Z,11.63
2022-10-30T09:56:18.864Z,12.50
2022-10-30T09:59:57.651Z,4.75
2022-10-30T10:03:23.664Z,3.15
2022-10-30T10:06:59.905Z,3.05
2022-10-30T10:10:26.561Z,5.22
2022-10-30T10:14:00.610Z,11.85
2022-10-30T10:17:06.654Z,11.98
2022-10-30T10:20:20.817Z,11.13
2022-10-30T10:23:47.991Z,13.52
2022-10-30T10:26:57.226Z,10.98
2022-10-30T10:30:04.038Z,8.48
2022-10-30T10:33:35.507Z,11.60
2022-10-30T10:36:48.090Z,12.02
2022-10-30T10:40:13.938Z,13.52
2022-10-30T10:43:25.619Z,13.93
2022-10-30T10:46:44.356Z,15.45
2022-10-30T10:50:22.644Z,13.32
2022-10-30T10:53:41.424Z,14.18
2022-10-30T10:56:48.219Z,13.15
2022-10-30T10:59:57.137Z,12.35
2022-10-30T11:06:29.168Z,14.95
2022-10-30T11:09:32.532Z,14.38
2022-10-30T11:12:38.567Z,14.75
2022-10-30T11:15:49.948Z,13.45
2022-10-30T11:19:01.550Z,13.90
2022-10-30T11:22:10.206Z,13.70
2022-10-30T11:25:26.756Z,14.77
2022-10-30T11:28:43.589Z,15.20
2022-10-30T11:31:47.766Z,14.75
2022-10-30T11:35:14.132Z,13.63
2022-10-30T11:38:21.823Z,13.65
2022-10-30T11:41:26.964Z,15.70
2022-10-30T11:44:35.956Z,14.30
2022-10-30T11:47:39.698Z,14.30
2022-10-30T11:50:48.896Z,13.48
2022-10-30T11:53:52.583Z,14.88
2022-10-30T11:56:58.185Z,14.90
2022-10-30T12:00:05.364Z,15.48
2022-10-30T12:03:36.455Z,18.02
2022-10-30T12:06:40.387Z,17.63
2022-10-30T12:09:48.013Z,18.27
2022-10-30T12:16:12.280Z,11.65
2022-10-30T12:19:17.129Z,14.02
2022-10-30T12:22:34.448Z,12.95
2022-10-30T12:25:38.551Z,10.68
2022-10-30T12:28:55.514Z,11.65
2022-10-30T12:32:08.289Z,11.10
2022-10-30T12:35:32.383Z,9.93
2022-10-30T12:38:55.210Z,12.07
2022-10-30T12:42:08.028Z,18.83
2022-10-30T12:45:27.471Z,16.52
2022-10-30T12:48:37.978Z,14.60
2022-10-30T12:51:51.234Z,6.18
2022-10-30T12:55:22.365Z,9.65
2022-10-30T12:58:44.911Z,13.23
2022-10-30T13:02:14.667Z,13.45
2022-10-30T13:05:30.330Z,14.88
2022-10-30T13:08:39.447Z,16.15
2022-10-30T13:11:56.481Z,16.85
2022-10-30T13:15:10.688Z,18.93
2022-10-30T13:18:27.852Z,18.45
2022-10-30T13:22:00.799Z,22.15
2022-10-30T13:25:29.108Z,23.50
2022-10-30T13:29:03.738Z,21.50
2022-10-30T13:32:15.529Z,19.65
2022-10-30T13:35:38.123Z,25.58
2022-10-30T13:38:54.024Z,22.70
2022-10-30T13:42:16.705Z,23.90
2022-10-30T13:45:31.921Z,23.08
2022-10-30T13:49:00.803Z,24.40
2022-10-30T13:52:14.683Z,20.05
2022-10-30T13:55:31.826Z,19.65
2022-10-30T13:58:38.658Z,19.38
2022-10-30T14:01:51.461Z,12.45
2022-10-30T14:04:56.666Z,18.13
2022-10-30T14:08:03.595Z,13.52
2022-10-30T14:11:15.348Z,7.15
2022-10-30T14:14:24.928Z,5.22
2022-10-30T14:17:31.634Z,10.88
2022-10-30T14:24:14.741Z,7.78
2022-10-30T14:27:30.200Z,5.93
2022-10-30T14:30:35.780Z,6.85
2022-10-30T14:33:42.065Z,6.25
2022-10-30T14:36:46.180Z,7.87
2022-10-30T14:39:51.405Z,6.63
2022-10-30T14:42:58.993Z,4.80
2022-10-30T14:46:33.699Z,5.10
2022-10-30T14:49:48.181Z,2.63
2022-10-30T14:52:52.738Z,1.92
2022-10-30T14:56:18.707Z,1.65
2022-10-30T14:59:35.991Z,2.08
2022-10-30T15:02:51.923Z,1.65
2022-10-30T15:06:14.923Z,2.70
2022-10-30T15:09:41.221Z,3.53
2022-10-30T15:12:51.327Z,4.32
2022-10-30T15:16:03.727Z,4.60
2022-10-30T15:19:09.737Z,2.95
2022-10-30T15:22:18.922Z,4.80
2022-10-30T15:25:25.681Z,2.45
2022-10-30T15:28:35.005Z,3.78
2022-10-30T15:31:38.931Z,3.80
2022-10-30T15:34:55.089Z,3.40
2022-10-30T15:38:10.779Z,4.40
2022-10-30T15:41:17.884Z,3.65
2022-10-30T15:44:36.840Z,3.20
2022-10-30T15:47:48.744Z,3.33
2022-10-30T15:51:06.379Z,2.80
2022-10-30T15:54:14.591Z,2.80
2022-10-30T15:58:01.048Z,3.22
2022-10-30T16:01:02.502Z,3.20
2022-10-30T16:04:16.348Z,2.70
2022-10-30T16:07:25.733Z,3.00
2022-10-30T16:10:36.025Z,3.15
2022-10-30T16:13:39.638Z,3.40
2022-10-30T16:16:46.220Z,3.40
2022-10-30T16:19:53.589Z,3.05
2022-10-30T16:22:58.805Z,3.67
2022-10-30T16:26:02.804Z,3.30
2022-10-30T16:29:17.977Z,4.40
2022-10-30T16:32:25.402Z,4.72
2022-10-30T16:35:29.768Z,3.67
2022-10-30T16:38:37.817Z,2.85
2022-10-30T16:41:41.799Z,2.67
2022-10-30T16:44:45.700Z,2.65
2022-10-30T16:48:08.176Z,3.10
2022-10-30T16:51:17.066Z,2.20
2022-10-30T16:54:31.363Z,2.70
2022-10-30T16:57:44.009Z,2.35
2022-10-30T17:00:54.753Z,2.53
2022-10-30T17:03:59.386Z,2.13
2022-10-30T17:07:09.859Z,1.90
2022-10-30T17:10:34.865Z,2.00
2022-10-30T17:13:44.008Z,2.05
2022-10-30T17:17:00.765Z,1.85
2022-10-30T17:20:15.144Z,1.60
2022-10-30T17:23:20.939Z,1.30
2022-10-30T17:26:25.163Z,1.48
2022-10-30T17:29:47.202Z,1.70
2022-10-30T17:32:58.485Z,1.50
2022-10-30T17:36:03.061Z,1.10
2022-10-30T17:39:08.256Z,1.30
2022-10-30T17:42:12.457Z,1.20
2022-10-30T17:45:18.285Z,1.70
2022-10-30T17:48:25.096Z,1.50
2022-10-30T17:51:30.343Z,1.50
2022-10-30T17:54:39.051Z,1.42
2022-10-30T17:57:42.892Z,1.52
2022-10-30T18:00:47.760Z,1.48
2022-10-30T18:03:58.234Z,1.80
2022-10-30T18:07:04.504Z,1.70
2022-10-30T18:10:09.839Z,1.98
2022-10-30T18:13:15.510Z,2.00
2022-10-30T18:16:21.807Z,1.75
2022-10-30T18:19:26.413Z,2.10
2022-10-30T18:22:31.224Z,1.90
2022-10-30T18:25:37.113Z,1.40
2022-10-30T18:28:41.266Z,2.53
2022-10-30T18:31:45.763Z,1.50
2022-10-30T18:34:50.249Z,2.40
2022-10-30T18:37:54.827Z,1.98
2022-10-30T18:40:59.270Z,2.25
2022-10-30T18:44:03.856Z,2.20
2022-10-30T18:47:12.106Z,2.40
2022-10-30T18:50:16.274Z,1.85
2022-10-30T18:53:20.594Z,1.77
2022-10-30T18:56:27.309Z,2.17
2022-10-30T18:59:31.035Z,2.90
2022-10-30T19:02:35.157Z,1.73
2022-10-30T19:05:43.917Z,2.20
2022-10-30T19:08:47.783Z,2.33
2022-10-30T19:11:52.048Z,1.95
2022-10-30T19:14:55.867Z,2.28
2022-10-30T19:18:01.013Z,1.88
2022-10-30T19:21:07.267Z,2.10
2022-10-30T19:24:18.433Z,2.53
2022-10-30T19:27:23.680Z,2.67
2022-10-30T19:30:28.467Z,1.90
2022-10-30T19:33:32.419Z,2.83
2022-10-30T19:36:38.424Z,1.73
2022-10-30T19:39:43.027Z,1.85
2022-10-30T19:42:47.003Z,1.63
2022-10-30T19:45:55.414Z,2.45
2022-10-30T19:49:00.201Z,1.70
2022-10-30T19:52:05.828Z,2.85
2022-10-30T19:55:09.445Z,2.47
2022-10-30T19:58:15.808Z,2.63
2022-10-30T20:01:19.314Z,2.97
2022-10-30T20:04:23.440Z,3.17
2022-10-30T20:07:27.106Z,2.17
2022-10-30T20:10:34.767Z,2.00
2022-10-30T20:13:38.426Z,1.95
2022-10-30T20:16:41.817Z,1.85
2022-10-30T20:19:46.539Z,1.80
2022-10-30T20:22:50.180Z,1.80
2022-10-30T20:25:55.941Z,1.92
2022-10-30T20:29:03.195Z,2.25
2022-10-30T20:32:10.288Z,1.63
2022-10-30T20:35:15.361Z,2.00
2022-10-30T20:38:26.744Z,2.38
2022-10-30T20:41:31.109Z,2.08
2022-10-30T20:44:34.713Z,1.95
2022-10-30T20:47:38.694Z,1.67
2022-10-30T20:50:43.800Z,2.38
2022-10-30T20:53:50.616Z,2.00
2022-10-30T20:56:53.813Z,2.88
2022-10-30T20:59:57.829Z,2.92
2022-10-30T21:03:05.242Z,2.30
2022-10-30T21:09:15.523Z,2.45
2022-10-30T21:12:20.060Z,2.40
2022-10-30T21:15:24.709Z,2.67
2022-10-30T21:18:27.761Z,2.42
2022-10-30T21:21:31.760Z,3.30
2022-10-30T21:24:35.561Z,1.90
2022-10-30T21:27:38.895Z,2.88
2022-10-30T21:30:41.870Z,1.90
2022-10-30T21:33:45.787Z,2.88
2022-10-30T21:36:49.405Z,3.05
2022-10-30T21:39:52.695Z,2.72
2022-10-30T21:42:58.584Z,1.63
2022-10-30T21:46:08.398Z,2.03
2022-10-30T21:49:14.400Z,1.77
2022-10-30T21:52:18.687Z,2.25
2022-10-30T21:55:21.971Z,1.80
2022-10-30T21:58:25.885Z,2.00
2022-10-30T22:01:30.784Z,2.15
2022-10-30T22:04:35.731Z,1.60
2022-10-30T22:07:39.105Z,1.40
2022-10-30T22:10:43.099Z,1.60
2022-10-30T22:13:47.933Z,1.60
2022-10-30T22:16:52.125Z,2.20
2022-10-30T22:19:55.458Z,1.90
2022-10-30T22:22:59.645Z,1.67
2022-10-30T22:26:07.951Z,1.35
2022-10-30T22:29:12.627Z,2.22
2022-10-30T22:32:15.621Z,2.33
2022-10-30T22:35:19.309Z,1.83
2022-10-30T22:38:22.277Z,2.40
2022-10-30T22:41:27.118Z,2.63
2022-10-30T22:44:32.385Z,1.95
2022-10-30T22:47:35.698Z,1.65
2022-10-30T22:50:39.685Z,1.95
2022-10-30T22:53:44.394Z,1.35
2022-10-30T22:56:50.145Z,1.25
2022-10-30T22:59:58.772Z,0.98
2022-10-30T23:03:06.920Z,1.60
2022-10-30T23:06:13.058Z,1.88
2022-10-30T23:09:18.731Z,1.70
2022-10-30T23:12:27.014Z,1.80
2022-10-30T23:15:38.291Z,1.80
2022-10-30T23:18:48.037Z,2.00
2022-10-30T23:21:59.319Z,1.40
2022-10-30T23:25:12.754Z,1.50
2022-10-30T23:28:26.497Z,2.03
2022-10-30T23:31:41.787Z,1.50
2022-10-30T23:34:51.121Z,1.63
2022-10-30T23:37:59.538Z,1.75
2022-10-30T23:41:09.392Z,2.15
2022-10-30T23:44:19.648Z,1.70
2022-10-30T23:47:28.879Z,2.10
2022-10-30T23:50:40.591Z,1.70
2022-10-30T23:53:49.820Z,1.73
2022-10-30T23:56:58.645Z,2.25
